Time;durP1;ratioP1;P1;durP2;ratioP2;P2;SDS_P1;SDS_P2;PMS_P1;PMS_P2;Temp;Humidity;BMP_temperature;BMP_pressure;BME280_temperature;BME280_humidity;BME280_pressure;Samples;Min_cycle;Max_cycle;Signal;HPM_P1;HPM_P2
2023/11/19 00:04:11;;;;;;;4.03;2.58;;;11.30;92.30;;;;;;10368307;28;20582;-60
2023/11/19 00:09:16;;;;;;;3.90;2.57;;;11.40;93.50;;;;;;10366015;28;20747;-60
2023/11/19 00:14:20;;;;;;;3.13;2.80;;;11.40;93.20;;;;;;10365738;28;20299;-60
2023/11/19 00:19:23;;;;;;;5.43;3.33;;;11.50;92.90;;;;;;10370180;28;20240;-60
2023/11/19 00:24:29;;;;;;;5.05;4.55;;;11.50;93.60;;;;;;10366780;28;20231;-60
2023/11/19 00:29:32;;;;;;;6.25;5.65;;;11.60;93.30;;;;;;10371453;28;20228;-59
2023/11/19 00:34:36;;;;;;;6.95;6.22;;;11.60;92.90;;;;;;10362125;28;20251;-60
2023/11/19 00:39:41;;;;;;;5.45;4.95;;;11.60;93.30;;;;;;10367106;28;20217;-61
2023/11/19 00:44:45;;;;;;;5.97;5.38;;;11.70;94.10;;;;;;10367441;28;20208;-60
2023/11/19 00:49:52;;;;;;;8.45;5.78;;;11.80;94.20;;;;;;10367396;28;20303;-60
2023/11/19 00:54:57;;;;;;;9.07;5.20;;;11.80;94.20;;;;;;10367345;28;20562;-61
2023/11/19 01:00:01;;;;;;;8.03;5.67;;;11.80;94.80;;;;;;10366834;28;20641;-61
2023/11/19 01:05:05;;;;;;;6.50;5.47;;;11.90;95.20;;;;;;10367772;28;20209;-60
2023/11/19 01:10:11;;;;;;;6.07;5.57;;;11.90;95.10;;;;;;10366599;28;20283;-61
2023/11/19 01:15:15;;;;;;;6.35;5.63;;;12.00;95.30;;;;;;10369294;28;20230;-61
2023/11/19 01:20:19;;;;;;;7.32;5.95;;;12.00;96.70;;;;;;10367451;28;20761;-62
2023/11/19 01:25:25;;;;;;;7.05;6.30;;;12.10;96.20;;;;;;10366398;28;20634;-61
2023/11/19 01:30:29;;;;;;;5.72;5.13;;;12.10;96.10;;;;;;10369353;28;20700;-61
2023/11/19 01:35:32;;;;;;;5.97;4.80;;;12.10;96.30;;;;;;10375887;28;20278;-60
2023/11/19 01:40:37;;;;;;;4.13;3.72;;;12.20;97.10;;;;;;10368311;28;20636;-61
2023/11/19 01:45:41;;;;;;;4.95;3.22;;;12.20;96.60;;;;;;10376028;28;20259;-61
2023/11/19 01:50:45;;;;;;;3.63;2.97;;;12.20;97.90;;;;;;10374288;28;20264;-60
2023/11/19 01:55:52;;;;;;;2.83;2.63;;;12.20;97.10;;;;;;10374725;28;20232;-60
2023/11/19 02:00:56;;;;;;;3.25;2.85;;;12.30;97.50;;;;;;10373107;28;20221;-61
2023/11/19 02:06:00;;;;;;;3.38;3.08;;;12.30;98.00;;;;;;10373285;28;20220;-59
2023/11/19 02:11:06;;;;;;;3.72;3.40;;;12.40;98.60;;;;;;10372193;28;20688;-61
2023/11/19 02:16:11;;;;;;;4.28;3.75;;;12.40;98.20;;;;;;10373987;28;20610;-61
2023/11/19 02:21:17;;;;;;;6.57;4.50;;;12.50;98.90;;;;;;10371982;28;20295;-61
2023/11/19 02:26:29;;;;;;;7.45;3.90;;;12.60;99.60;;;;;;10370416;28;20204;-62
2023/11/19 02:31:35;;;;;;;6.72;4.10;;;12.60;99.80;;;;;;10375349;28;20766;-61
2023/11/19 02:36:41;;;;;;;7.15;3.78;;;12.60;99.90;;;;;;10368023;28;20201;-61
2023/11/19 02:41:45;;;;;;;7.13;3.08;;;12.70;99.80;;;;;;10369735;28;20272;-60
2023/11/19 02:46:49;;;;;;;8.02;2.95;;;12.70;99.30;;;;;;10372412;28;20631;-61
2023/11/19 02:51:53;;;;;;;8.98;2.80;;;12.70;99.90;;;;;;10370663;28;20604;-62
2023/11/19 02:56:59;;;;;;;5.93;2.55;;;12.80;99.90;;;;;;10371414;28;20221;-62
2023/11/19 03:02:06;;;;;;;8.18;2.83;;;12.80;99.80;;;;;;10370434;28;20225;-62
2023/11/19 03:07:10;;;;;;;9.40;2.88;;;12.80;99.50;;;;;;10368236;28;20303;-63
2023/11/19 03:12:13;;;;;;;9.30;3.38;;;12.90;99.90;;;;;;10370214;28;20221;-61
2023/11/19 03:17:18;;;;;;;7.65;2.95;;;12.90;99.90;;;;;;10370867;28;20569;-61
2023/11/19 03:22:22;;;;;;;11.30;3.58;;;12.90;99.90;;;;;;10368809;28;20236;-61
2023/11/19 03:27:26;;;;;;;10.38;3.72;;;12.90;99.90;;;;;;10370654;28;20778;-61
2023/11/19 03:32:31;;;;;;;14.70;4.18;;;12.90;99.90;;;;;;10369078;28;20216;-60
2023/11/19 03:37:35;;;;;;;12.07;3.75;;;13.00;99.90;;;;;;10370747;28;20253;-61
2023/11/19 03:42:40;;;;;;;11.13;3.72;;;13.00;99.90;;;;;;10363251;28;20232;-64
2023/11/19 03:47:49;;;;;;;10.43;3.45;;;13.00;99.90;;;;;;10371808;28;20217;-63
2023/11/19 03:52:53;;;;;;;13.75;3.55;;;13.00;99.90;;;;;;10369657;28;20295;-63
2023/11/19 03:57:57;;;;;;;15.80;3.83;;;13.00;99.90;;;;;;10369203;28;20747;-63
2023/11/19 04:03:02;;;;;;;15.85;3.92;;;13.00;99.90;;;;;;10368366;28;20221;-62
2023/11/19 04:08:06;;;;;;;13.52;4.20;;;13.00;99.90;;;;;;10370310;28;20270;-62
2023/11/19 04:13:10;;;;;;;16.70;4.28;;;12.90;99.90;;;;;;10370734;28;20779;-63
2023/11/19 04:18:16;;;;;;;14.93;3.35;;;12.90;99.90;;;;;;10369109;28;20205;-63
2023/11/19 04:23:19;;;;;;;17.77;3.40;;;12.90;99.90;;;;;;10368348;28;20289;-63
2023/11/19 04:28:23;;;;;;;18.70;4.43;;;12.90;99.90;;;;;;10367864;28;20243;-64
2023/11/19 04:33:28;;;;;;;14.38;3.67;;;12.80;99.90;;;;;;10372219;28;20691;-64
2023/11/19 04:38:31;;;;;;;14.18;3.60;;;12.80;99.90;;;;;;10366701;28;20247;-64
2023/11/19 04:43:35;;;;;;;20.65;4.35;;;12.70;99.90;;;;;;10370717;28;20596;-65
2023/11/19 04:48:41;;;;;;;11.68;3.60;;;12.70;99.90;;;;;;10367705;28;20228;-62
2023/11/19 04:53:45;;;;;;;17.65;3.65;;;12.70;99.90;;;;;;10368146;28;20223;-64
2023/11/19 04:58:49;;;;;;;18.13;4.32;;;12.70;99.90;;;;;;10369803;28;20198;-62
2023/11/19 05:03:54;;;;;;;17.98;3.83;;;12.70;99.80;;;;;;10373812;28;20213;-62
2023/11/19 05:09:00;;;;;;;18.77;4.38;;;12.70;99.90;;;;;;10374053;28;20220;-64
2023/11/19 05:14:09;;;;;;;21.80;4.50;;;12.70;99.90;;;;;;10375586;28;20255;-63
2023/11/19 05:19:15;;;;;;;21.05;4.88;;;12.70;99.80;;;;;;10375122;28;20271;-63
2023/11/19 05:24:19;;;;;;;22.40;4.43;;;12.70;99.90;;;;;;10376432;28;20754;-61
2023/11/19 05:29:22;;;;;;;21.88;3.97;;;12.70;99.80;;;;;;10374251;28;20228;-63
2023/11/19 05:34:28;;;;;;;21.30;4.90;;;12.80;99.70;;;;;;10379258;28;20200;-64
2023/11/19 05:39:32;;;;;;;25.13;4.43;;;12.80;99.60;;;;;;10372542;28;20271;-63
2023/11/19 05:44:36;;;;;;;27.38;5.15;;;12.80;99.60;;;;;;10374446;28;20240;-62
2023/11/19 05:49:44;;;;;;;21.75;4.82;;;12.80;99.60;;;;;;10372949;28;20225;-62
2023/11/19 05:54:51;;;;;;;17.35;4.68;;;12.80;99.70;;;;;;10378855;28;20692;-63
2023/11/19 05:59:59;;;;;;;23.88;4.47;;;12.80;99.50;;;;;;10372394;28;20847;-63
2023/11/19 06:05:06;;;;;;;22.92;5.15;;;12.80;99.70;;;;;;10341877;28;20205;-63
2023/11/19 06:10:11;;;;;;;22.23;4.93;;;12.80;99.80;;;;;;10371790;28;20252;-63
2023/11/19 06:15:14;;;;;;;25.88;4.90;;;12.80;99.50;;;;;;10376302;28;20259;-61
2023/11/19 06:20:20;;;;;;;22.33;4.90;;;12.80;99.60;;;;;;10372739;28;20215;-62
2023/11/19 06:25:24;;;;;;;22.67;4.22;;;12.80;99.40;;;;;;10373672;28;20217;-63
2023/11/19 06:30:29;;;;;;;24.42;4.47;;;12.80;99.30;;;;;;10369761;28;20260;-63
2023/11/19 06:35:36;;;;;;;21.13;4.00;;;12.70;99.10;;;;;;10373861;28;20691;-61
2023/11/19 06:40:43;;;;;;;20.23;5.03;;;12.70;99.10;;;;;;10367647;28;20642;-63
2023/11/19 06:45:47;;;;;;;23.33;4.43;;;12.70;99.00;;;;;;10370081;28;20247;-64
2023/11/19 06:50:52;;;;;;;20.77;4.65;;;12.70;99.00;;;;;;10369944;28;20229;-64
2023/11/19 06:55:56;;;;;;;20.45;4.32;;;12.70;98.90;;;;;;10369920;28;20627;-63
2023/11/19 07:01:00;;;;;;;19.83;4.65;;;12.70;98.90;;;;;;10369975;28;20692;-64
2023/11/19 07:06:06;;;;;;;18.90;4.60;;;12.70;98.30;;;;;;10372834;28;20724;-63
2023/11/19 07:11:11;;;;;;;28.85;4.88;;;12.70;98.10;;;;;;10369129;28;20731;-64
2023/11/19 07:16:15;;;;;;;27.27;4.95;;;12.70;97.90;;;;;;10370431;28;20196;-65
2023/11/19 07:21:21;;;;;;;20.77;4.70;;;12.70;97.50;;;;;;10369227;28;20299;-64
2023/11/19 07:26:31;;;;;;;17.77;4.22;;;12.70;96.90;;;;;;10367727;28;20252;-64
2023/11/19 07:31:35;;;;;;;17.80;4.40;;;12.70;96.90;;;;;;10367263;28;20225;-65
2023/11/19 07:36:40;;;;;;;22.48;4.50;;;12.70;96.80;;;;;;10361648;28;20208;-64
2023/11/19 07:41:44;;;;;;;25.27;4.80;;;12.60;96.80;;;;;;10369878;28;20233;-68
2023/11/19 07:46:48;;;;;;;22.98;4.75;;;12.60;96.70;;;;;;10365473;28;20197;-62
2023/11/19 07:51:53;;;;;;;22.95;4.70;;;12.60;96.60;;;;;;10370767;28;20225;-63
2023/11/19 07:56:56;;;;;;;20.30;4.32;;;12.60;96.60;;;;;;10366578;28;20213;-65
2023/11/19 08:02:00;;;;;;;19.27;4.40;;;12.60;96.80;;;;;;10365219;28;20225;-64
2023/11/19 08:07:05;;;;;;;21.65;4.65;;;12.60;96.80;;;;;;10367771;28;20209;-65
2023/11/19 08:12:09;;;;;;;23.27;4.82;;;12.50;96.50;;;;;;10369661;28;20307;-64
2023/11/19 08:17:12;;;;;;;25.35;4.65;;;12.50;96.50;;;;;;10366353;28;20251;-65
2023/11/19 08:22:17;;;;;;;24.52;4.90;;;12.50;96.40;;;;;;10367816;28;20224;-66
2023/11/19 08:27:26;;;;;;;23.63;5.80;;;12.50;96.20;;;;;;10365968;28;20197;-65
2023/11/19 08:32:30;;;;;;;22.40;5.18;;;12.50;96.30;;;;;;10373503;28;20598;-65
2023/11/19 08:37:37;;;;;;;28.08;7.00;;;12.50;96.20;;;;;;10370560;28;20204;-65
2023/11/19 08:42:40;;;;;;;21.90;5.55;;;12.60;96.40;;;;;;10373140;28;20225;-65
2023/11/19 08:47:45;;;;;;;22.40;5.18;;;12.60;96.10;;;;;;10375857;28;20204;-64
2023/11/19 08:52:50;;;;;;;22.90;5.20;;;12.60;96.00;;;;;;10372230;28;20306;-63
2023/11/19 08:57:53;;;;;;;22.35;4.95;;;12.70;96.10;;;;;;10374245;28;20200;-64
2023/11/19 09:02:58;;;;;;;27.15;5.68;;;12.70;96.00;;;;;;10377652;28;20243;-66
2023/11/19 09:08:04;;;;;;;28.00;6.07;;;12.60;95.80;;;;;;10378704;28;20261;-65
2023/11/19 09:13:07;;;;;;;25.42;5.22;;;12.70;95.70;;;;;;10380161;28;20677;-66
2023/11/19 09:18:11;;;;;;;23.80;5.78;;;12.70;95.90;;;;;;10375888;28;20212;-65
2023/11/19 09:23:16;;;;;;;24.63;5.13;;;12.80;95.70;;;;;;10375565;28;20290;-65
2023/11/19 09:28:19;;;;;;;30.83;5.03;;;12.90;95.50;;;;;;10372129;28;20205;-68
2023/11/19 09:33:23;;;;;;;29.15;6.18;;;13.00;95.50;;;;;;10379206;28;20260;-63
2023/11/19 09:38:28;;;;;;;24.35;5.38;;;13.00;95.50;;;;;;10375045;28;20293;-64
2023/11/19 09:43:32;;;;;;;19.13;4.88;;;13.00;94.90;;;;;;10368200;28;20224;-66
2023/11/19 09:48:36;;;;;;;23.08;5.05;;;13.00;95.00;;;;;;10373144;28;20259;-65
2023/11/19 09:53:42;;;;;;;29.75;5.03;;;13.10;94.80;;;;;;10366431;28;20229;-65
2023/11/19 09:58:46;;;;;;;23.45;4.70;;;13.10;94.90;;;;;;10375120;28;20253;-66
2023/11/19 10:03:51;;;;;;;24.27;4.85;;;13.10;94.80;;;;;;10374262;28;20221;-67
2023/11/19 10:08:57;;;;;;;24.73;4.72;;;13.20;94.70;;;;;;10347486;28;20208;-65
2023/11/19 10:14:01;;;;;;;22.33;5.20;;;13.40;94.30;;;;;;10372976;28;20225;-66
2023/11/19 10:19:04;;;;;;;24.85;4.90;;;13.40;93.90;;;;;;10367470;28;20205;-66
2023/11/19 10:24:10;;;;;;;22.75;5.05;;;13.50;93.80;;;;;;10372741;28;20277;-67
2023/11/19 10:29:14;;;;;;;26.45;5.18;;;13.60;93.30;;;;;;10372183;28;20291;-67
2023/11/19 10:34:26;;;;;;;27.50;5.82;;;13.60;93.20;;;;;;10371414;28;20279;-67
2023/11/19 10:39:54;;;;;;;22.48;5.07;;;13.50;93.20;;;;;;10375342;28;20229;-66
2023/11/19 10:44:58;;;;;;;23.98;4.80;;;13.60;93.10;;;;;;10369745;28;20255;-65
2023/11/19 10:50:01;;;;;;;25.55;5.43;;;13.70;93.10;;;;;;10372988;28;20263;-65
2023/11/19 10:55:09;;;;;;;20.98;4.65;;;13.70;92.40;;;;;;10372034;28;20205;-66
2023/11/19 11:00:16;;;;;;;23.60;4.93;;;13.80;92.30;;;;;;10365370;28;20272;-66
2023/11/19 11:05:21;;;;;;;34.00;7.22;;;13.80;92.40;;;;;;10372454;28;20680;-66
2023/11/19 11:10:35;;;;;;;19.05;4.97;;;13.70;92.60;;;;;;10368135;28;20224;-65
2023/11/19 11:15:39;;;;;;;17.15;4.40;;;13.70;92.30;;;;;;10369597;28;20199;-64
2023/11/19 11:20:45;;;;;;;23.13;4.95;;;13.70;91.80;;;;;;10364883;28;20228;-67
2023/11/19 11:26:01;;;;;;;22.70;5.10;;;13.70;91.80;;;;;;10369853;28;20559;-66
2023/11/19 11:31:26;;;;;;;19.77;4.82;;;13.70;91.90;;;;;;10369516;28;20251;-63
2023/11/19 11:36:33;;;;;;;26.58;5.40;;;13.70;92.00;;;;;;10372553;28;20544;-62
2023/11/19 11:41:37;;;;;;;22.58;5.30;;;13.70;91.80;;;;;;10370585;28;20267;-63
2023/11/19 11:46:56;;;;;;;19.10;4.35;;;13.80;91.30;;;;;;10364775;28;20287;-65
2023/11/19 11:52:04;;;;;;;24.13;4.28;;;13.80;91.40;;;;;;10368953;28;20284;-64
2023/11/19 11:57:11;;;;;;;18.77;4.35;;;14.00;90.60;;;;;;10369941;28;20575;-62
2023/11/19 12:02:18;;;;;;;22.13;4.95;;;14.00;90.40;;;;;;10361923;28;20312;-63
2023/11/19 12:07:23;;;;;;;23.52;5.05;;;14.00;90.00;;;;;;10364940;28;20227;-62
2023/11/19 12:12:29;;;;;;;18.20;3.97;;;14.00;90.20;;;;;;10367117;28;20279;-62
2023/11/19 12:17:49;;;;;;;17.13;4.00;;;14.10;89.30;;;;;;10363893;28;20201;-65
2023/11/19 12:22:54;;;;;;;19.13;3.95;;;14.20;88.40;;;;;;10371617;28;20575;-65
2023/11/19 12:28:04;;;;;;;15.40;4.00;;;14.20;88.50;;;;;;10367233;28;20591;-64
2023/11/19 12:33:10;;;;;;;17.58;3.78;;;14.20;88.70;;;;;;10362804;28;20311;-64
2023/11/19 12:38:21;;;;;;;18.85;3.80;;;14.20;88.20;;;;;;10367617;28;20653;-65
2023/11/19 12:43:26;;;;;;;13.32;4.03;;;14.20;87.80;;;;;;10366785;28;20213;-65
2023/11/19 12:48:30;;;;;;;16.70;3.90;;;14.20;88.40;;;;;;10363883;28;20685;-66
2023/11/19 12:53:49;;;;;;;18.02;3.60;;;14.20;89.60;;;;;;10366092;28;20233;-64
2023/11/19 12:58:54;;;;;;;18.85;3.65;;;14.10;89.10;;;;;;10366815;28;20668;-65
2023/11/19 13:03:58;;;;;;;16.13;4.10;;;14.00;89.70;;;;;;10349041;28;20338;-64
2023/11/19 13:09:02;;;;;;;17.38;3.50;;;14.00;90.20;;;;;;10358345;28;20205;-65
2023/11/19 13:14:08;;;;;;;17.10;4.38;;;13.90;91.10;;;;;;10367218;28;20711;-65
2023/11/19 13:19:12;;;;;;;20.10;4.22;;;13.70;92.10;;;;;;10364627;28;20224;-65
2023/11/19 13:24:16;;;;;;;12.80;3.80;;;13.60;92.50;;;;;;10360952;28;20213;-65
2023/11/19 13:29:21;;;;;;;14.18;3.20;;;13.60;92.40;;;;;;10369786;28;20221;-64
2023/11/19 13:34:25;;;;;;;11.55;3.45;;;13.60;92.70;;;;;;10370750;28;20243;-64
2023/11/19 13:39:28;;;;;;;12.40;3.30;;;13.60;92.10;;;;;;10366463;28;20221;-65
2023/11/19 13:44:34;;;;;;;13.88;3.88;;;13.60;92.00;;;;;;10368683;28;20201;-62
2023/11/19 13:49:38;;;;;;;16.70;3.53;;;13.60;91.60;;;;;;10371389;28;20229;-66
2023/11/19 13:54:41;;;;;;;13.23;3.45;;;13.60;91.70;;;;;;10363955;28;20228;-64
2023/11/19 13:59:46;;;;;;;15.45;3.55;;;13.60;92.10;;;;;;10364066;28;20228;-64
2023/11/19 14:04:50;;;;;;;15.65;3.70;;;13.60;92.10;;;;;;10368497;28;20257;-64
2023/11/19 14:09:54;;;;;;;12.38;3.28;;;13.70;92.10;;;;;;10368827;28;20757;-64
2023/11/19 14:14:59;;;;;;;14.13;3.50;;;13.70;92.30;;;;;;10364291;28;20228;-64
2023/11/19 14:20:04;;;;;;;14.68;3.38;;;13.60;92.10;;;;;;10372699;28;20582;-64
2023/11/19 14:25:10;;;;;;;15.23;3.45;;;13.50;92.30;;;;;;10373226;28;20255;-63
2023/11/19 14:30:15;;;;;;;15.88;4.13;;;13.50;92.50;;;;;;10363828;28;20221;-63
2023/11/19 14:35:19;;;;;;;15.63;3.45;;;13.50;92.40;;;;;;10369984;28;20221;-60
2023/11/19 14:40:23;;;;;;;13.52;3.78;;;13.40;92.50;;;;;;10365387;28;20280;-60
2023/11/19 14:45:46;;;;;;;14.10;3.75;;;13.40;93.00;;;;;;10364838;28;20247;-63
2023/11/19 14:50:53;;;;;;;13.95;3.58;;;13.30;93.30;;;;;;10364667;28;20651;-64
2023/11/19 14:55:56;;;;;;;14.10;3.55;;;13.30;93.80;;;;;;10366903;28;20225;-60
2023/11/19 15:01:04;;;;;;;12.32;3.15;;;13.20;93.70;;;;;;10366498;28;20279;-63
2023/11/19 15:06:08;;;;;;;17.75;3.88;;;13.20;93.80;;;;;;10364159;28;20224;-63
2023/11/19 15:11:12;;;;;;;15.55;3.22;;;13.10;93.90;;;;;;10366022;28;20271;-64
2023/11/19 15:16:24;;;;;;;13.85;3.50;;;13.10;93.40;;;;;;10368043;28;20229;-62
2023/11/19 15:21:29;;;;;;;12.15;3.10;;;13.10;93.50;;;;;;10360681;28;20774;-64
2023/11/19 15:26:32;;;;;;;15.18;4.38;;;13.00;93.30;;;;;;10365802;28;20209;-62
2023/11/19 15:31:37;;;;;;;15.32;4.10;;;13.00;94.00;;;;;;10370398;28;20778;-62
2023/11/19 15:36:42;;;;;;;15.02;3.85;;;12.90;93.80;;;;;;10362984;28;20711;-62
2023/11/19 15:41:45;;;;;;;16.35;3.80;;;12.90;94.10;;;;;;10360796;28;20224;-62
2023/11/19 15:46:50;;;;;;;10.98;3.90;;;12.80;94.40;;;;;;10368065;28;20209;-64
2023/11/19 15:51:54;;;;;;;17.88;3.42;;;12.80;95.00;;;;;;10367156;28;20224;-63
2023/11/19 15:56:58;;;;;;;12.93;3.28;;;12.70;95.30;;;;;;10338395;28;20847;-64
2023/11/19 16:02:03;;;;;;;19.25;3.80;;;12.60;95.50;;;;;;10366887;28;20228;-64
2023/11/19 16:07:07;;;;;;;14.40;3.40;;;12.60;96.00;;;;;;10368578;28;20205;-65
2023/11/19 16:12:11;;;;;;;16.58;4.13;;;12.50;96.00;;;;;;10364893;28;20221;-64
2023/11/19 16:17:16;;;;;;;16.75;3.92;;;12.50;96.00;;;;;;10366710;28;20251;-63
2023/11/19 16:22:20;;;;;;;15.65;4.30;;;12.50;96.20;;;;;;10366995;28;20232;-65
2023/11/19 16:27:26;;;;;;;19.90;3.78;;;12.50;96.30;;;;;;10370685;28;20631;-64
2023/11/19 16:32:34;;;;;;;14.68;3.58;;;12.50;96.40;;;;;;10364861;28;20786;-61
2023/11/19 16:37:39;;;;;;;16.20;3.75;;;12.50;96.40;;;;;;10366577;28;20254;-67
2023/11/19 16:42:42;;;;;;;15.95;3.92;;;12.50;96.50;;;;;;10363061;28;20213;-65
2023/11/19 16:47:47;;;;;;;17.75;4.30;;;12.50;96.70;;;;;;10363456;28;20205;-63
2023/11/19 16:52:51;;;;;;;18.00;5.00;;;12.40;97.20;;;;;;10369025;28;20454;-62
2023/11/19 16:57:55;;;;;;;15.98;3.95;;;12.40;97.60;;;;;;10372680;28;20201;-62
2023/11/19 17:03:02;;;;;;;16.85;4.75;;;12.40;97.40;;;;;;10370868;28;20290;-59
2023/11/19 17:08:06;;;;;;;19.13;4.28;;;12.40;97.70;;;;;;10371964;28;20205;-57
2023/11/19 17:13:11;;;;;;;19.05;4.82;;;12.40;97.90;;;;;;10373495;28;20225;-60
2023/11/19 17:18:17;;;;;;;19.70;4.22;;;12.30;98.10;;;;;;10376252;28;20255;-57
2023/11/19 17:23:20;;;;;;;17.70;3.97;;;12.30;98.10;;;;;;10370830;28;20700;-57
2023/11/19 17:28:24;;;;;;;19.00;4.80;;;12.30;98.10;;;;;;10374229;28;20791;-58
2023/11/19 17:33:29;;;;;;;15.50;4.50;;;12.30;97.90;;;;;;10373185;28;20233;-60
2023/11/19 17:38:33;;;;;;;15.68;4.13;;;12.30;97.80;;;;;;10375467;28;20196;-58
2023/11/19 17:43:37;;;;;;;17.50;4.57;;;12.30;98.20;;;;;;10366842;28;20244;-59
2023/11/19 17:48:42;;;;;;;20.08;5.20;;;12.30;97.90;;;;;;10358555;28;20742;-58
2023/11/19 17:53:45;;;;;;;21.70;4.95;;;12.30;97.80;;;;;;10371011;28;20304;-57
2023/11/19 17:58:49;;;;;;;16.90;4.25;;;12.30;97.90;;;;;;10375146;28;20227;-58
2023/11/19 18:03:54;;;;;;;18.02;4.50;;;12.30;98.40;;;;;;10366271;28;20197;-60
2023/11/19 18:08:58;;;;;;;18.80;5.32;;;12.20;98.90;;;;;;10361616;28;20213;-59
2023/11/19 18:14:02;;;;;;;18.92;4.90;;;12.20;98.80;;;;;;10355173;28;20264;-58
2023/11/19 18:19:07;;;;;;;19.40;5.78;;;12.20;98.90;;;;;;10363425;28;20200;-60
2023/11/19 18:24:10;;;;;;;18.73;4.65;;;12.20;98.90;;;;;;10362061;28;20262;-59
2023/11/19 18:29:16;;;;;;;15.40;4.18;;;12.20;99.00;;;;;;10366248;28;20220;-67
2023/11/19 18:34:23;;;;;;;19.05;4.95;;;12.20;99.40;;;;;;10334525;28;20279;-59
2023/11/19 18:39:26;;;;;;;18.27;4.85;;;12.10;99.20;;;;;;10369469;28;20294;-59
2023/11/19 18:44:30;;;;;;;22.77;5.45;;;12.10;99.40;;;;;;10364916;28;20197;-62
2023/11/19 18:49:35;;;;;;;18.48;4.75;;;12.10;99.30;;;;;;10378534;28;20279;-61
2023/11/19 18:54:42;;;;;;;16.20;4.13;;;12.10;99.40;;;;;;10381134;28;20609;-62
2023/11/19 18:59:47;;;;;;;22.23;4.00;;;12.10;99.80;;;;;;10381800;28;20220;-59
2023/11/19 19:04:52;;;;;;;18.92;4.13;;;12.10;99.60;;;;;;10376173;28;20205;-64
2023/11/19 19:09:56;;;;;;;22.40;4.90;;;12.10;99.90;;;;;;10369731;28;20221;-59
2023/11/19 19:15:00;;;;;;;16.02;4.43;;;12.10;99.90;;;;;;10369322;28;20257;-59
2023/11/19 19:20:10;;;;;;;15.52;4.20;;;12.10;99.80;;;;;;10370408;28;20225;-62
2023/11/19 19:25:15;;;;;;;12.68;3.00;;;12.00;99.90;;;;;;10369692;28;20208;-60
2023/11/19 19:30:19;;;;;;;10.10;3.53;;;12.00;99.90;;;;;;10369905;28;20314;-57
2023/11/19 19:35:28;;;;;;;9.10;2.75;;;12.00;99.90;;;;;;10368925;28;20290;-57
2023/11/19 19:40:32;;;;;;;8.93;2.55;;;12.00;99.90;;;;;;10367936;28;20688;-59
2023/11/19 19:45:36;;;;;;;7.38;3.15;;;12.00;99.90;;;;;;10368137;28;20559;-61
2023/11/19 19:50:41;;;;;;;10.15;3.75;;;12.00;99.90;;;;;;10369152;28;20221;-59
2023/11/19 19:55:44;;;;;;;9.43;2.65;;;12.00;99.90;;;;;;10376908;28;20212;-61
2023/11/19 20:00:48;;;;;;;9.68;3.10;;;12.00;99.90;;;;;;10370143;28;20279;-62
2023/11/19 20:05:57;;;;;;;10.15;2.85;;;12.00;99.90;;;;;;10376922;28;20188;-58
2023/11/19 20:11:01;;;;;;;10.48;2.78;;;11.90;99.90;;;;;;10377804;28;20704;-61
2023/11/19 20:16:06;;;;;;;8.00;2.53;;;11.90;99.90;;;;;;10374802;28;20221;-61
2023/11/19 20:21:11;;;;;;;7.97;2.40;;;12.00;99.90;;;;;;10374492;28;20231;-59
2023/11/19 20:26:18;;;;;;;6.10;2.25;;;12.00;99.90;;;;;;10375870;28;20201;-58
2023/11/19 20:31:22;;;;;;;11.73;3.55;;;11.90;99.90;;;;;;10367025;28;20721;-61
2023/11/19 20:36:28;;;;;;;8.45;2.25;;;11.90;99.90;;;;;;10359769;28;20634;-60
2023/11/19 20:41:32;;;;;;;9.35;2.53;;;12.00;99.90;;;;;;10317107;28;20704;-61
2023/11/19 20:46:36;;;;;;;9.27;3.30;;;12.00;99.90;;;;;;10366453;28;20247;-57
2023/11/19 20:51:41;;;;;;;5.97;2.42;;;12.00;99.90;;;;;;10361831;28;20220;-61
2023/11/19 20:56:44;;;;;;;5.68;1.90;;;12.00;99.90;;;;;;10332475;28;20248;-60
2023/11/19 21:01:48;;;;;;;5.43;2.10;;;11.90;99.90;;;;;;10365434;28;20247;-61
2023/11/19 21:06:53;;;;;;;7.07;2.13;;;12.00;99.90;;;;;;10366714;28;20259;-59
2023/11/19 21:11:58;;;;;;;5.95;1.85;;;11.90;99.90;;;;;;10369109;28;20379;-58
2023/11/19 21:17:06;;;;;;;7.53;2.03;;;11.90;99.90;;;;;;10368355;28;20263;-58
2023/11/19 21:22:10;;;;;;;7.10;2.72;;;11.90;99.90;;;;;;10368698;28;20701;-58
2023/11/19 21:27:14;;;;;;;5.38;2.90;;;11.90;99.90;;;;;;10369088;28;20228;-59
2023/11/19 21:32:18;;;;;;;10.00;4.55;;;12.00;99.90;;;;;;10399081;28;20282;-58
2023/11/19 21:37:23;;;;;;;7.53;2.50;;;12.00;99.90;;;;;;10375989;28;20244;-55
2023/11/19 21:42:27;;;;;;;11.88;3.25;;;12.00;99.90;;;;;;10367957;28;20220;-58
2023/11/19 21:47:30;;;;;;;11.25;2.88;;;12.00;99.90;;;;;;10370431;28;20259;-57
2023/11/19 21:52:36;;;;;;;8.63;2.42;;;12.00;99.90;;;;;;10375046;28;20229;-57
2023/11/19 21:57:41;;;;;;;6.03;2.13;;;12.00;99.90;;;;;;10374655;28;20801;-57
2023/11/19 22:02:45;;;;;;;7.05;2.00;;;12.10;99.90;;;;;;10374441;28;20225;-56
2023/11/19 22:07:52;;;;;;;4.90;2.47;;;12.10;99.90;;;;;;10374960;28;20197;-57
2023/11/19 22:12:57;;;;;;;4.10;1.95;;;12.10;99.90;;;;;;10373677;28;20229;-57
2023/11/19 22:18:01;;;;;;;6.38;2.15;;;12.10;99.90;;;;;;10374085;28;20352;-59
2023/11/19 22:23:06;;;;;;;6.57;2.40;;;12.10;99.90;;;;;;10372078;28;20712;-59
2023/11/19 22:28:10;;;;;;;9.18;2.90;;;12.10;99.90;;;;;;10372739;28;20197;-58
2023/11/19 22:33:13;;;;;;;8.65;2.67;;;12.10;99.90;;;;;;10374958;28;20229;-59
2023/11/19 22:38:20;;;;;;;5.95;2.35;;;12.10;99.90;;;;;;10370914;28;20217;-58
2023/11/19 22:43:24;;;;;;;8.60;2.00;;;12.10;99.90;;;;;;10365396;28;20286;-60
2023/11/19 22:48:27;;;;;;;7.20;2.60;;;12.10;99.90;;;;;;10369752;28;20197;-60
2023/11/19 22:53:33;;;;;;;6.65;2.05;;;12.10;99.90;;;;;;10368137;28;20425;-58
2023/11/19 22:58:37;;;;;;;7.22;1.83;;;12.20;99.90;;;;;;10371348;28;20283;-58
2023/11/19 23:03:41;;;;;;;7.32;2.03;;;12.20;99.90;;;;;;10369709;28;20580;-57
2023/11/19 23:08:46;;;;;;;6.18;2.30;;;12.20;99.90;;;;;;10369899;28;20224;-59
2023/11/19 23:13:50;;;;;;;8.25;2.53;;;12.20;99.90;;;;;;10366462;28;21649;-58
2023/11/19 23:18:54;;;;;;;4.90;1.95;;;12.20;99.90;;;;;;10369444;28;20221;-62
2023/11/19 23:23:59;;;;;;;8.57;2.80;;;12.10;99.90;;;;;;10367393;28;20263;-63
2023/11/19 23:29:03;;;;;;;8.25;1.85;;;12.20;99.90;;;;;;10370308;28;20260;-62
2023/11/19 23:34:17;;;;;;;6.72;1.95;;;12.20;99.90;;;;;;10368761;28;20201;-63
2023/11/19 23:39:23;;;;;;;6.93;1.88;;;12.20;99.90;;;;;;10367783;28;20256;-63
2023/11/19 23:44:28;;;;;;;7.63;2.05;;;12.20;99.90;;;;;;10367468;28;20761;-63
2023/11/19 23:49:31;;;;;;;5.05;1.90;;;12.20;99.90;;;;;;10365318;28;20240;-62
2023/11/19 23:54:36;;;;;;;5.60;2.90;;;12.20;99.90;;;;;;10368608;28;20660;-63
2023/11/19 23:59:41;;;;;;;5.72;2.17;;;12.20;99.90;;;;;;10368198;28;20758;-62
